sensor_id;sensor_type;location;lat;lon;timestamp;P1;durP1;ratioP1;P2;durP2;ratioP2
46721;SDS011;32455;43.430;23.136;2023-01-19T00:00:43;34.63;;;4.88;;
46721;SDS011;32455;43.430;23.136;2023-01-19T00:03:28;37.10;;;5.82;;
46721;SDS011;32455;43.430;23.136;2023-01-19T00:06:13;40.95;;;5.03;;
46721;SDS011;32455;43.430;23.136;2023-01-19T00:08:59;41.55;;;7.15;;
46721;SDS011;32455;43.430;23.136;2023-01-19T00:11:44;44.92;;;6.20;;
46721;SDS011;32455;43.430;23.136;2023-01-19T00:14:29;37.05;;;6.28;;
46721;SDS011;32455;43.430;23.136;2023-01-19T00:17:14;38.55;;;5.70;;
46721;SDS011;32455;43.430;23.136;2023-01-19T00:20:00;38.58;;;5.80;;
46721;SDS011;32455;43.430;23.136;2023-01-19T00:22:45;40.53;;;5.45;;
46721;SDS011;32455;43.430;23.136;2023-01-19T00:25:34;40.22;;;5.85;;
46721;SDS011;32455;43.430;23.136;2023-01-19T00:28:20;43.47;;;6.53;;
46721;SDS011;32455;43.430;23.136;2023-01-19T00:31:05;35.25;;;5.50;;
46721;SDS011;32455;43.430;23.136;2023-01-19T00:33:50;45.35;;;6.15;;
46721;SDS011;32455;43.430;23.136;2023-01-19T00:36:36;36.17;;;6.15;;
46721;SDS011;32455;43.430;23.136;2023-01-19T00:39:21;34.75;;;5.35;;
46721;SDS011;32455;43.430;23.136;2023-01-19T00:42:07;31.02;;;5.65;;
46721;SDS011;32455;43.430;23.136;2023-01-19T00:45:15;40.60;;;6.82;;
46721;SDS011;32455;43.430;23.136;2023-01-19T00:48:03;37.95;;;4.97;;
46721;SDS011;32455;43.430;23.136;2023-01-19T00:50:48;37.17;;;5.45;;
46721;SDS011;32455;43.430;23.136;2023-01-19T00:53:34;34.05;;;5.85;;
46721;SDS011;32455;43.430;23.136;2023-01-19T00:56:19;46.88;;;5.47;;
46721;SDS011;32455;43.430;23.136;2023-01-19T00:59:04;46.10;;;5.65;;
46721;SDS011;32455;43.430;23.136;2023-01-19T01:01:49;46.50;;;6.72;;
46721;SDS011;32455;43.430;23.136;2023-01-19T01:04:35;30.73;;;5.43;;
46721;SDS011;32455;43.430;23.136;2023-01-19T01:07:21;32.13;;;5.22;;
46721;SDS011;32455;43.430;23.136;2023-01-19T01:10:11;29.73;;;5.70;;
46721;SDS011;32455;43.430;23.136;2023-01-19T01:13:05;37.88;;;6.30;;
46721;SDS011;32455;43.430;23.136;2023-01-19T01:15:51;43.10;;;5.70;;
46721;SDS011;32455;43.430;23.136;2023-01-19T01:18:37;40.30;;;5.65;;
46721;SDS011;32455;43.430;23.136;2023-01-19T01:21:22;37.00;;;5.90;;
46721;SDS011;32455;43.430;23.136;2023-01-19T01:24:07;34.15;;;4.88;;
46721;SDS011;32455;43.430;23.136;2023-01-19T01:26:55;32.65;;;4.35;;
46721;SDS011;32455;43.430;23.136;2023-01-19T01:29:40;33.38;;;5.10;;
46721;SDS011;32455;43.430;23.136;2023-01-19T01:32:32;48.42;;;6.47;;
46721;SDS011;32455;43.430;23.136;2023-01-19T01:35:18;41.92;;;5.05;;
46721;SDS011;32455;43.430;23.136;2023-01-19T01:38:03;40.83;;;4.85;;
46721;SDS011;32455;43.430;23.136;2023-01-19T01:40:49;44.28;;;5.97;;
46721;SDS011;32455;43.430;23.136;2023-01-19T01:43:42;45.88;;;5.75;;
46721;SDS011;32455;43.430;23.136;2023-01-19T01:46:37;34.03;;;5.05;;
46721;SDS011;32455;43.430;23.136;2023-01-19T01:49:22;40.55;;;5.25;;
46721;SDS011;32455;43.430;23.136;2023-01-19T01:52:07;38.88;;;5.78;;
46721;SDS011;32455;43.430;23.136;2023-01-19T01:54:54;35.05;;;5.38;;
46721;SDS011;32455;43.430;23.136;2023-01-19T01:57:42;31.00;;;5.47;;
46721;SDS011;32455;43.430;23.136;2023-01-19T02:00:32;40.78;;;6.53;;
46721;SDS011;32455;43.430;23.136;2023-01-19T02:03:37;39.30;;;6.45;;
46721;SDS011;32455;43.430;23.136;2023-01-19T02:06:23;33.50;;;5.18;;
46721;SDS011;32455;43.430;23.136;2023-01-19T02:09:08;34.85;;;5.22;;
46721;SDS011;32455;43.430;23.136;2023-01-19T02:12:13;28.02;;;4.97;;
46721;SDS011;32455;43.430;23.136;2023-01-19T02:15:18;35.40;;;4.97;;
46721;SDS011;32455;43.430;23.136;2023-01-19T02:18:04;43.60;;;5.53;;
46721;SDS011;32455;43.430;23.136;2023-01-19T02:23:56;40.75;;;6.25;;
46721;SDS011;32455;43.430;23.136;2023-01-19T02:26:44;41.92;;;5.55;;
46721;SDS011;32455;43.430;23.136;2023-01-19T02:29:32;31.63;;;5.65;;
46721;SDS011;32455;43.430;23.136;2023-01-19T02:32:19;33.83;;;4.88;;
46721;SDS011;32455;43.430;23.136;2023-01-19T02:35:05;30.08;;;6.60;;
46721;SDS011;32455;43.430;23.136;2023-01-19T02:37:50;27.52;;;4.95;;
46721;SDS011;32455;43.430;23.136;2023-01-19T02:40:38;31.98;;;6.28;;
46721;SDS011;32455;43.430;23.136;2023-01-19T02:43:30;32.58;;;5.43;;
46721;SDS011;32455;43.430;23.136;2023-01-19T02:46:16;29.88;;;6.28;;
46721;SDS011;32455;43.430;23.136;2023-01-19T02:49:00;51.67;;;6.78;;
46721;SDS011;32455;43.430;23.136;2023-01-19T02:51:45;29.38;;;4.50;;
46721;SDS011;32455;43.430;23.136;2023-01-19T03:04:48;53.22;;;6.22;;
46721;SDS011;32455;43.430;23.136;2023-01-19T03:11:06;42.88;;;5.45;;
46721;SDS011;32455;43.430;23.136;2023-01-19T03:13:55;29.13;;;4.72;;
46721;SDS011;32455;43.430;23.136;2023-01-19T03:16:50;31.85;;;5.25;;
46721;SDS011;32455;43.430;23.136;2023-01-19T03:19:40;36.38;;;5.20;;
46721;SDS011;32455;43.430;23.136;2023-01-19T03:22:28;44.70;;;4.93;;
46721;SDS011;32455;43.430;23.136;2023-01-19T03:25:13;39.67;;;5.68;;
46721;SDS011;32455;43.430;23.136;2023-01-19T03:28:00;36.53;;;5.07;;
46721;SDS011;32455;43.430;23.136;2023-01-19T03:30:49;41.38;;;6.35;;
46721;SDS011;32455;43.430;23.136;2023-01-19T03:33:44;31.40;;;5.38;;
46721;SDS011;32455;43.430;23.136;2023-01-19T03:36:34;29.00;;;3.78;;
46721;SDS011;32455;43.430;23.136;2023-01-19T03:39:25;41.53;;;6.00;;
46721;SDS011;32455;43.430;23.136;2023-01-19T03:42:13;41.03;;;4.57;;
46721;SDS011;32455;43.430;23.136;2023-01-19T03:45:00;33.08;;;4.40;;
46721;SDS011;32455;43.430;23.136;2023-01-19T03:47:46;34.45;;;4.03;;
46721;SDS011;32455;43.430;23.136;2023-01-19T03:50:31;41.53;;;5.43;;
46721;SDS011;32455;43.430;23.136;2023-01-19T03:53:19;31.85;;;6.22;;
46721;SDS011;32455;43.430;23.136;2023-01-19T03:56:07;21.52;;;4.05;;
46721;SDS011;32455;43.430;23.136;2023-01-19T03:59:02;30.45;;;4.10;;
46721;SDS011;32455;43.430;23.136;2023-01-19T04:01:49;34.90;;;4.55;;
46721;SDS011;32455;43.430;23.136;2023-01-19T04:04:35;26.17;;;4.47;;
46721;SDS011;32455;43.430;23.136;2023-01-19T04:07:20;27.83;;;4.15;;
46721;SDS011;32455;43.430;23.136;2023-01-19T04:10:06;35.45;;;5.20;;
46721;SDS011;32455;43.430;23.136;2023-01-19T04:12:56;38.50;;;5.63;;
46721;SDS011;32455;43.430;23.136;2023-01-19T04:15:42;30.58;;;5.13;;
46721;SDS011;32455;43.430;23.136;2023-01-19T04:18:28;34.00;;;4.75;;
46721;SDS011;32455;43.430;23.136;2023-01-19T04:21:14;27.92;;;5.03;;
46721;SDS011;32455;43.430;23.136;2023-01-19T04:23:59;34.83;;;4.47;;
46721;SDS011;32455;43.430;23.136;2023-01-19T04:26:45;22.60;;;4.20;;
46721;SDS011;32455;43.430;23.136;2023-01-19T04:29:30;39.63;;;5.03;;
46721;SDS011;32455;43.430;23.136;2023-01-19T04:32:15;35.15;;;4.63;;
46721;SDS011;32455;43.430;23.136;2023-01-19T04:35:01;36.85;;;5.47;;
46721;SDS011;32455;43.430;23.136;2023-01-19T04:37:47;42.30;;;5.43;;
46721;SDS011;32455;43.430;23.136;2023-01-19T04:40:32;36.85;;;6.32;;
46721;SDS011;32455;43.430;23.136;2023-01-19T04:43:18;27.13;;;4.30;;
46721;SDS011;32455;43.430;23.136;2023-01-19T04:46:04;44.75;;;4.93;;
46721;SDS011;32455;43.430;23.136;2023-01-19T04:48:49;30.70;;;4.70;;
46721;SDS011;32455;43.430;23.136;2023-01-19T04:51:35;33.05;;;4.82;;
46721;SDS011;32455;43.430;23.136;2023-01-19T04:54:21;40.78;;;4.85;;
46721;SDS011;32455;43.430;23.136;2023-01-19T04:57:06;33.13;;;4.95;;
46721;SDS011;32455;43.430;23.136;2023-01-19T04:59:52;43.90;;;5.85;;
46721;SDS011;32455;43.430;23.136;2023-01-19T05:02:37;28.40;;;4.32;;
46721;SDS011;32455;43.430;23.136;2023-01-19T05:05:22;35.00;;;4.50;;
46721;SDS011;32455;43.430;23.136;2023-01-19T05:08:07;42.17;;;4.88;;
46721;SDS011;32455;43.430;23.136;2023-01-19T05:10:52;44.47;;;5.32;;
46721;SDS011;32455;43.430;23.136;2023-01-19T05:13:37;36.78;;;5.45;;
46721;SDS011;32455;43.430;23.136;2023-01-19T05:16:22;28.95;;;4.53;;
46721;SDS011;32455;43.430;23.136;2023-01-19T05:19:07;32.95;;;4.38;;
46721;SDS011;32455;43.430;23.136;2023-01-19T05:21:53;33.55;;;5.05;;
46721;SDS011;32455;43.430;23.136;2023-01-19T05:24:38;40.42;;;5.72;;
46721;SDS011;32455;43.430;23.136;2023-01-19T05:27:23;38.70;;;4.95;;
46721;SDS011;32455;43.430;23.136;2023-01-19T05:30:09;42.55;;;6.20;;
46721;SDS011;32455;43.430;23.136;2023-01-19T05:32:55;49.45;;;6.25;;
46721;SDS011;32455;43.430;23.136;2023-01-19T05:35:40;33.60;;;4.93;;
46721;SDS011;32455;43.430;23.136;2023-01-19T05:38:25;46.88;;;5.47;;
46721;SDS011;32455;43.430;23.136;2023-01-19T05:41:10;37.10;;;6.03;;
46721;SDS011;32455;43.430;23.136;2023-01-19T05:43:56;40.78;;;4.63;;
46721;SDS011;32455;43.430;23.136;2023-01-19T05:46:42;29.40;;;4.88;;
46721;SDS011;32455;43.430;23.136;2023-01-19T05:49:27;46.72;;;6.28;;
46721;SDS011;32455;43.430;23.136;2023-01-19T05:52:13;51.60;;;7.55;;
46721;SDS011;32455;43.430;23.136;2023-01-19T05:54:58;45.03;;;6.00;;
46721;SDS011;32455;43.430;23.136;2023-01-19T05:57:44;55.42;;;8.38;;
46721;SDS011;32455;43.430;23.136;2023-01-19T06:00:30;50.38;;;7.13;;
46721;SDS011;32455;43.430;23.136;2023-01-19T06:03:15;37.97;;;5.82;;
46721;SDS011;32455;43.430;23.136;2023-01-19T06:06:01;36.05;;;5.57;;
46721;SDS011;32455;43.430;23.136;2023-01-19T06:08:47;66.40;;;8.88;;
46721;SDS011;32455;43.430;23.136;2023-01-19T06:11:32;28.88;;;4.13;;
46721;SDS011;32455;43.430;23.136;2023-01-19T06:14:17;46.83;;;7.35;;
46721;SDS011;32455;43.430;23.136;2023-01-19T06:17:03;44.38;;;6.00;;
46721;SDS011;32455;43.430;23.136;2023-01-19T06:19:49;43.50;;;6.30;;
46721;SDS011;32455;43.430;23.136;2023-01-19T06:22:35;41.63;;;6.15;;
46721;SDS011;32455;43.430;23.136;2023-01-19T06:25:21;47.38;;;7.60;;
46721;SDS011;32455;43.430;23.136;2023-01-19T06:28:06;37.22;;;5.65;;
46721;SDS011;32455;43.430;23.136;2023-01-19T06:30:52;55.90;;;7.20;;
46721;SDS011;32455;43.430;23.136;2023-01-19T06:33:38;42.38;;;7.18;;
46721;SDS011;32455;43.430;23.136;2023-01-19T06:36:23;53.47;;;7.25;;
46721;SDS011;32455;43.430;23.136;2023-01-19T06:39:08;55.70;;;6.43;;
46721;SDS011;32455;43.430;23.136;2023-01-19T06:41:54;44.75;;;7.53;;
46721;SDS011;32455;43.430;23.136;2023-01-19T06:44:39;54.33;;;7.22;;
46721;SDS011;32455;43.430;23.136;2023-01-19T06:47:30;60.33;;;7.10;;
46721;SDS011;32455;43.430;23.136;2023-01-19T06:50:16;37.88;;;5.35;;
46721;SDS011;32455;43.430;23.136;2023-01-19T06:53:02;53.08;;;6.78;;
46721;SDS011;32455;43.430;23.136;2023-01-19T06:55:48;42.25;;;6.88;;
46721;SDS011;32455;43.430;23.136;2023-01-19T06:58:33;38.90;;;7.45;;
46721;SDS011;32455;43.430;23.136;2023-01-19T07:01:19;39.60;;;7.07;;
46721;SDS011;32455;43.430;23.136;2023-01-19T07:04:04;50.65;;;8.82;;
46721;SDS011;32455;43.430;23.136;2023-01-19T07:06:49;63.35;;;7.97;;
46721;SDS011;32455;43.430;23.136;2023-01-19T07:09:35;63.30;;;8.02;;
46721;SDS011;32455;43.430;23.136;2023-01-19T07:12:21;58.67;;;7.88;;
46721;SDS011;32455;43.430;23.136;2023-01-19T07:15:06;44.83;;;8.07;;
46721;SDS011;32455;43.430;23.136;2023-01-19T07:17:56;63.08;;;8.18;;
46721;SDS011;32455;43.430;23.136;2023-01-19T07:20:42;53.90;;;6.97;;
46721;SDS011;32455;43.430;23.136;2023-01-19T07:23:30;50.30;;;7.85;;
46721;SDS011;32455;43.430;23.136;2023-01-19T07:26:15;48.75;;;7.47;;
46721;SDS011;32455;43.430;23.136;2023-01-19T07:29:05;41.67;;;6.93;;
46721;SDS011;32455;43.430;23.136;2023-01-19T08:25:22;38.10;;;6.25;;
46721;SDS011;32455;43.430;23.136;2023-01-19T08:28:08;51.25;;;8.45;;
46721;SDS011;32455;43.430;23.136;2023-01-19T08:30:54;52.13;;;8.68;;
46721;SDS011;32455;43.430;23.136;2023-01-19T08:33:39;55.72;;;8.25;;
46721;SDS011;32455;43.430;23.136;2023-01-19T08:36:27;68.95;;;8.60;;
46721;SDS011;32455;43.430;23.136;2023-01-19T08:39:13;56.25;;;8.63;;
46721;SDS011;32455;43.430;23.136;2023-01-19T08:41:58;56.58;;;8.18;;
46721;SDS011;32455;43.430;23.136;2023-01-19T08:44:44;53.47;;;7.90;;
46721;SDS011;32455;43.430;23.136;2023-01-19T08:47:29;46.92;;;7.72;;
46721;SDS011;32455;43.430;23.136;2023-01-19T08:50:15;49.80;;;6.93;;
46721;SDS011;32455;43.430;23.136;2023-01-19T08:53:01;44.72;;;8.30;;
46721;SDS011;32455;43.430;23.136;2023-01-19T08:55:53;51.50;;;8.13;;
46721;SDS011;32455;43.430;23.136;2023-01-19T08:58:41;56.75;;;7.47;;
46721;SDS011;32455;43.430;23.136;2023-01-19T09:01:28;56.58;;;9.18;;
46721;SDS011;32455;43.430;23.136;2023-01-19T09:04:13;51.40;;;7.10;;
46721;SDS011;32455;43.430;23.136;2023-01-19T09:06:59;59.28;;;8.55;;
46721;SDS011;32455;43.430;23.136;2023-01-19T09:46:18;49.25;;;9.07;;
46721;SDS011;32455;43.430;23.136;2023-01-19T09:49:13;45.55;;;8.10;;
46721;SDS011;32455;43.430;23.136;2023-01-19T09:52:13;69.90;;;8.77;;
46721;SDS011;32455;43.430;23.136;2023-01-19T09:54:58;44.85;;;6.93;;
46721;SDS011;32455;43.430;23.136;2023-01-19T09:57:43;44.90;;;6.43;;
46721;SDS011;32455;43.430;23.136;2023-01-19T10:00:29;61.42;;;7.30;;
46721;SDS011;32455;43.430;23.136;2023-01-19T10:03:16;40.83;;;7.03;;
46721;SDS011;32455;43.430;23.136;2023-01-19T10:06:04;48.40;;;8.10;;
46721;SDS011;32455;43.430;23.136;2023-01-19T10:09:06;47.95;;;8.13;;
46721;SDS011;32455;43.430;23.136;2023-01-19T11:09:49;34.33;;;5.47;;
46721;SDS011;32455;43.430;23.136;2023-01-19T11:13:00;33.55;;;6.03;;
46721;SDS011;32455;43.430;23.136;2023-01-19T11:16:02;34.55;;;5.10;;
46721;SDS011;32455;43.430;23.136;2023-01-19T11:18:58;31.67;;;4.70;;
46721;SDS011;32455;43.430;23.136;2023-01-19T11:21:45;38.20;;;5.68;;
46721;SDS011;32455;43.430;23.136;2023-01-19T11:24:31;20.05;;;4.35;;
46721;SDS011;32455;43.430;23.136;2023-01-19T11:27:17;25.52;;;5.10;;
46721;SDS011;32455;43.430;23.136;2023-01-19T11:32:54;30.05;;;5.25;;
46721;SDS011;32455;43.430;23.136;2023-01-19T11:35:40;31.30;;;4.53;;
46721;SDS011;32455;43.430;23.136;2023-01-19T14:48:30;33.38;;;7.00;;
46721;SDS011;32455;43.430;23.136;2023-01-19T14:51:16;27.38;;;6.35;;
46721;SDS011;32455;43.430;23.136;2023-01-19T14:54:10;36.10;;;8.32;;
46721;SDS011;32455;43.430;23.136;2023-01-19T14:57:01;27.02;;;6.40;;
46721;SDS011;32455;43.430;23.136;2023-01-19T14:59:46;21.80;;;5.72;;
46721;SDS011;32455;43.430;23.136;2023-01-19T15:02:33;32.72;;;5.53;;
46721;SDS011;32455;43.430;23.136;2023-01-19T15:05:18;23.88;;;6.25;;
46721;SDS011;32455;43.430;23.136;2023-01-19T15:08:04;27.52;;;5.82;;
46721;SDS011;32455;43.430;23.136;2023-01-19T15:10:50;18.77;;;6.47;;
46721;SDS011;32455;43.430;23.136;2023-01-19T15:13:35;27.52;;;5.80;;
46721;SDS011;32455;43.430;23.136;2023-01-19T15:16:22;28.17;;;5.68;;
46721;SDS011;32455;43.430;23.136;2023-01-19T15:19:12;34.33;;;5.72;;
46721;SDS011;32455;43.430;23.136;2023-01-19T15:22:01;24.75;;;6.03;;
46721;SDS011;32455;43.430;23.136;2023-01-19T15:24:45;17.27;;;5.40;;
46721;SDS011;32455;43.430;23.136;2023-01-19T15:27:31;28.17;;;6.15;;
46721;SDS011;32455;43.430;23.136;2023-01-19T15:30:21;25.05;;;5.95;;
46721;SDS011;32455;43.430;23.136;2023-01-19T15:33:16;25.33;;;5.63;;
46721;SDS011;32455;43.430;23.136;2023-01-19T15:36:03;26.27;;;5.95;;
46721;SDS011;32455;43.430;23.136;2023-01-19T15:38:49;21.88;;;5.25;;
46721;SDS011;32455;43.430;23.136;2023-01-19T15:41:35;30.13;;;6.15;;
46721;SDS011;32455;43.430;23.136;2023-01-19T15:44:21;25.33;;;5.47;;
46721;SDS011;32455;43.430;23.136;2023-01-19T15:47:08;25.27;;;6.07;;
46721;SDS011;32455;43.430;23.136;2023-01-19T15:49:54;26.27;;;5.18;;
46721;SDS011;32455;43.430;23.136;2023-01-19T15:52:39;23.65;;;5.47;;
46721;SDS011;32455;43.430;23.136;2023-01-19T15:55:25;24.05;;;5.07;;
46721;SDS011;32455;43.430;23.136;2023-01-19T15:58:10;27.38;;;6.43;;
46721;SDS011;32455;43.430;23.136;2023-01-19T16:00:57;31.10;;;7.13;;
46721;SDS011;32455;43.430;23.136;2023-01-19T16:03:42;28.00;;;5.85;;
46721;SDS011;32455;43.430;23.136;2023-01-19T16:06:29;16.63;;;5.82;;
46721;SDS011;32455;43.430;23.136;2023-01-19T16:09:15;29.38;;;6.32;;
46721;SDS011;32455;43.430;23.136;2023-01-19T16:12:03;22.35;;;5.75;;
46721;SDS011;32455;43.430;23.136;2023-01-19T16:14:49;21.70;;;5.40;;
46721;SDS011;32455;43.430;23.136;2023-01-19T16:17:34;25.77;;;5.97;;
46721;SDS011;32455;43.430;23.136;2023-01-19T16:20:20;19.13;;;5.45;;
46721;SDS011;32455;43.430;23.136;2023-01-19T16:23:05;27.92;;;6.15;;
46721;SDS011;32455;43.430;23.136;2023-01-19T16:25:57;36.58;;;5.45;;
46721;SDS011;32455;43.430;23.136;2023-01-19T16:31:29;46.97;;;21.45;;
46721;SDS011;32455;43.430;23.136;2023-01-19T16:46:20;24.08;;;7.60;;
46721;SDS011;32455;43.430;23.136;2023-01-19T17:30:27;21.85;;;9.68;;
46721;SDS011;32455;43.430;23.136;2023-01-19T17:33:12;16.13;;;4.10;;
46721;SDS011;32455;43.430;23.136;2023-01-19T17:36:02;19.17;;;3.72;;
46721;SDS011;32455;43.430;23.136;2023-01-19T17:41:36;7.93;;;3.00;;
46721;SDS011;32455;43.430;23.136;2023-01-19T17:44:21;13.63;;;3.67;;
46721;SDS011;32455;43.430;23.136;2023-01-19T17:47:06;10.93;;;2.67;;
46721;SDS011;32455;43.430;23.136;2023-01-19T17:49:50;18.13;;;6.30;;
46721;SDS011;32455;43.430;23.136;2023-01-19T17:52:36;9.82;;;3.65;;
46721;SDS011;32455;43.430;23.136;2023-01-19T17:55:21;10.90;;;3.85;;
46721;SDS011;32455;43.430;23.136;2023-01-19T17:58:06;14.93;;;3.83;;
46721;SDS011;32455;43.430;23.136;2023-01-19T18:00:52;11.88;;;3.50;;
46721;SDS011;32455;43.430;23.136;2023-01-19T18:03:37;8.00;;;3.45;;
46721;SDS011;32455;43.430;23.136;2023-01-19T18:06:22;10.07;;;4.03;;
46721;SDS011;32455;43.430;23.136;2023-01-19T18:09:06;13.55;;;3.92;;
46721;SDS011;32455;43.430;23.136;2023-01-19T18:11:52;12.35;;;4.53;;
46721;SDS011;32455;43.430;23.136;2023-01-19T18:14:37;12.88;;;3.80;;
46721;SDS011;32455;43.430;23.136;2023-01-19T18:17:23;11.05;;;3.80;;
46721;SDS011;32455;43.430;23.136;2023-01-19T18:20:08;10.15;;;4.03;;
46721;SDS011;32455;43.430;23.136;2023-01-19T18:22:55;11.68;;;4.45;;
46721;SDS011;32455;43.430;23.136;2023-01-19T18:25:41;13.40;;;5.25;;
46721;SDS011;32455;43.430;23.136;2023-01-19T18:28:27;13.27;;;4.78;;
46721;SDS011;32455;43.430;23.136;2023-01-19T18:31:14;10.20;;;4.40;;
46721;SDS011;32455;43.430;23.136;2023-01-19T18:34:01;10.73;;;5.10;;
46721;SDS011;32455;43.430;23.136;2023-01-19T18:36:48;7.93;;;3.67;;
46721;SDS011;32455;43.430;23.136;2023-01-19T18:39:33;11.93;;;4.72;;
46721;SDS011;32455;43.430;23.136;2023-01-19T18:42:18;12.63;;;5.97;;
46721;SDS011;32455;43.430;23.136;2023-01-19T18:45:04;11.32;;;3.88;;
46721;SDS011;32455;43.430;23.136;2023-01-19T18:47:50;11.77;;;3.70;;
46721;SDS011;32455;43.430;23.136;2023-01-19T18:50:36;10.50;;;3.65;;
46721;SDS011;32455;43.430;23.136;2023-01-19T18:53:22;10.88;;;4.28;;
46721;SDS011;32455;43.430;23.136;2023-01-19T18:56:09;8.63;;;3.70;;
46721;SDS011;32455;43.430;23.136;2023-01-19T18:58:56;10.60;;;4.18;;
46721;SDS011;32455;43.430;23.136;2023-01-19T19:01:40;9.70;;;4.40;;
46721;SDS011;32455;43.430;23.136;2023-01-19T19:04:26;13.40;;;6.18;;
46721;SDS011;32455;43.430;23.136;2023-01-19T19:07:11;31.05;;;5.40;;
46721;SDS011;32455;43.430;23.136;2023-01-19T19:09:57;27.33;;;12.43;;
46721;SDS011;32455;43.430;23.136;2023-01-19T19:12:42;35.58;;;17.40;;
46721;SDS011;32455;43.430;23.136;2023-01-19T19:15:27;21.38;;;7.72;;
46721;SDS011;32455;43.430;23.136;2023-01-19T19:18:13;14.30;;;6.30;;
46721;SDS011;32455;43.430;23.136;2023-01-19T19:21:09;21.80;;;7.82;;
46721;SDS011;32455;43.430;23.136;2023-01-19T19:23:56;9.40;;;4.18;;
46721;SDS011;32455;43.430;23.136;2023-01-19T19:26:42;8.00;;;3.53;;
46721;SDS011;32455;43.430;23.136;2023-01-19T19:29:27;9.13;;;3.63;;
46721;SDS011;32455;43.430;23.136;2023-01-19T19:32:12;9.75;;;3.88;;
46721;SDS011;32455;43.430;23.136;2023-01-19T19:34:59;5.90;;;3.33;;
46721;SDS011;32455;43.430;23.136;2023-01-19T19:37:43;8.88;;;3.70;;
46721;SDS011;32455;43.430;23.136;2023-01-19T19:40:28;13.13;;;5.57;;
46721;SDS011;32455;43.430;23.136;2023-01-19T19:43:14;13.07;;;5.43;;
46721;SDS011;32455;43.430;23.136;2023-01-19T19:46:00;12.65;;;6.00;;
46721;SDS011;32455;43.430;23.136;2023-01-19T19:48:48;13.65;;;6.00;;
46721;SDS011;32455;43.430;23.136;2023-01-19T19:51:34;9.98;;;5.65;;
46721;SDS011;32455;43.430;23.136;2023-01-19T19:54:19;13.52;;;6.72;;
46721;SDS011;32455;43.430;23.136;2023-01-19T19:57:07;13.77;;;6.65;;
46721;SDS011;32455;43.430;23.136;2023-01-19T19:59:53;15.60;;;6.38;;
46721;SDS011;32455;43.430;23.136;2023-01-19T20:02:38;13.73;;;5.90;;
46721;SDS011;32455;43.430;23.136;2023-01-19T20:05:24;16.13;;;5.95;;
46721;SDS011;32455;43.430;23.136;2023-01-19T20:08:10;10.82;;;6.50;;
46721;SDS011;32455;43.430;23.136;2023-01-19T20:11:01;13.07;;;6.90;;
46721;SDS011;32455;43.430;23.136;2023-01-19T20:13:49;8.95;;;5.18;;
46721;SDS011;32455;43.430;23.136;2023-01-19T20:16:34;11.70;;;5.63;;
46721;SDS011;32455;43.430;23.136;2023-01-19T20:19:20;9.27;;;4.65;;
46721;SDS011;32455;43.430;23.136;2023-01-19T20:22:06;9.18;;;4.47;;
46721;SDS011;32455;43.430;23.136;2023-01-19T20:24:51;7.28;;;4.88;;
46721;SDS011;32455;43.430;23.136;2023-01-19T20:27:36;20.50;;;13.43;;
46721;SDS011;32455;43.430;23.136;2023-01-19T20:30:22;12.75;;;7.53;;
46721;SDS011;32455;43.430;23.136;2023-01-19T20:33:07;10.90;;;6.95;;
46721;SDS011;32455;43.430;23.136;2023-01-19T20:35:52;13.25;;;6.82;;
46721;SDS011;32455;43.430;23.136;2023-01-19T20:38:37;15.88;;;7.18;;
46721;SDS011;32455;43.430;23.136;2023-01-19T20:41:23;12.40;;;6.60;;
46721;SDS011;32455;43.430;23.136;2023-01-19T20:44:14;13.52;;;6.30;;
46721;SDS011;32455;43.430;23.136;2023-01-19T20:47:03;6.60;;;4.28;;
46721;SDS011;32455;43.430;23.136;2023-01-19T20:49:49;8.48;;;3.70;;
46721;SDS011;32455;43.430;23.136;2023-01-19T20:52:34;6.82;;;3.50;;
46721;SDS011;32455;43.430;23.136;2023-01-19T20:55:19;14.00;;;3.63;;
46721;SDS011;32455;43.430;23.136;2023-01-19T20:58:05;6.82;;;3.28;;
46721;SDS011;32455;43.430;23.136;2023-01-19T21:00:50;7.53;;;2.90;;
46721;SDS011;32455;43.430;23.136;2023-01-19T21:03:35;11.00;;;3.22;;
46721;SDS011;32455;43.430;23.136;2023-01-19T21:06:20;8.00;;;2.78;;
46721;SDS011;32455;43.430;23.136;2023-01-19T21:09:08;10.40;;;3.33;;
46721;SDS011;32455;43.430;23.136;2023-01-19T21:11:54;8.93;;;3.15;;
46721;SDS011;32455;43.430;23.136;2023-01-19T21:14:39;6.05;;;3.35;;
46721;SDS011;32455;43.430;23.136;2023-01-19T21:17:26;11.07;;;3.33;;
46721;SDS011;32455;43.430;23.136;2023-01-19T21:20:11;13.07;;;4.20;;
46721;SDS011;32455;43.430;23.136;2023-01-19T21:22:57;9.98;;;4.43;;
46721;SDS011;32455;43.430;23.136;2023-01-19T21:25:52;8.77;;;4.05;;
46721;SDS011;32455;43.430;23.136;2023-01-19T21:28:39;8.85;;;4.00;;
46721;SDS011;32455;43.430;23.136;2023-01-19T21:31:24;11.00;;;4.38;;
46721;SDS011;32455;43.430;23.136;2023-01-19T21:34:09;12.68;;;5.05;;
46721;SDS011;32455;43.430;23.136;2023-01-19T21:36:54;19.27;;;6.88;;
46721;SDS011;32455;43.430;23.136;2023-01-19T21:39:39;14.98;;;5.82;;
46721;SDS011;32455;43.430;23.136;2023-01-19T21:42:24;14.20;;;5.40;;
46721;SDS011;32455;43.430;23.136;2023-01-19T21:45:09;10.75;;;5.45;;
46721;SDS011;32455;43.430;23.136;2023-01-19T21:47:55;10.48;;;5.65;;
46721;SDS011;32455;43.430;23.136;2023-01-19T21:50:40;10.00;;;5.60;;
46721;SDS011;32455;43.430;23.136;2023-01-19T21:53:26;14.38;;;6.80;;
46721;SDS011;32455;43.430;23.136;2023-01-19T21:56:11;15.20;;;5.50;;
46721;SDS011;32455;43.430;23.136;2023-01-19T21:58:56;13.80;;;6.32;;
46721;SDS011;32455;43.430;23.136;2023-01-19T22:01:46;14.27;;;6.35;;
46721;SDS011;32455;43.430;23.136;2023-01-19T22:04:32;16.27;;;7.57;;
46721;SDS011;32455;43.430;23.136;2023-01-19T22:07:18;12.35;;;5.60;;
46721;SDS011;32455;43.430;23.136;2023-01-19T22:10:04;14.43;;;5.68;;
46721;SDS011;32455;43.430;23.136;2023-01-19T22:12:49;22.67;;;6.75;;
46721;SDS011;32455;43.430;23.136;2023-01-19T22:15:35;12.00;;;5.35;;
46721;SDS011;32455;43.430;23.136;2023-01-19T22:18:20;21.17;;;6.53;;
46721;SDS011;32455;43.430;23.136;2023-01-19T22:21:16;11.00;;;5.25;;
46721;SDS011;32455;43.430;23.136;2023-01-19T22:24:04;12.23;;;5.65;;
46721;SDS011;32455;43.430;23.136;2023-01-19T22:26:49;14.70;;;5.53;;
46721;SDS011;32455;43.430;23.136;2023-01-19T22:29:35;12.65;;;5.95;;
46721;SDS011;32455;43.430;23.136;2023-01-19T22:32:20;13.27;;;6.13;;
46721;SDS011;32455;43.430;23.136;2023-01-19T22:35:05;13.48;;;7.07;;
46721;SDS011;32455;43.430;23.136;2023-01-19T22:37:50;12.13;;;6.85;;
46721;SDS011;32455;43.430;23.136;2023-01-19T22:40:35;12.80;;;7.15;;
46721;SDS011;32455;43.430;23.136;2023-01-19T22:43:21;18.02;;;7.00;;
46721;SDS011;32455;43.430;23.136;2023-01-19T22:46:06;16.35;;;7.35;;
46721;SDS011;32455;43.430;23.136;2023-01-19T22:48:51;12.93;;;6.05;;
46721;SDS011;32455;43.430;23.136;2023-01-19T22:51:37;14.70;;;5.25;;
46721;SDS011;32455;43.430;23.136;2023-01-19T22:54:22;10.63;;;5.03;;
46721;SDS011;32455;43.430;23.136;2023-01-19T22:57:07;8.00;;;3.53;;
46721;SDS011;32455;43.430;23.136;2023-01-19T22:59:55;10.38;;;2.97;;
46721;SDS011;32455;43.430;23.136;2023-01-19T23:02:40;7.28;;;2.40;;
46721;SDS011;32455;43.430;23.136;2023-01-19T23:05:25;7.40;;;2.60;;
46721;SDS011;32455;43.430;23.136;2023-01-19T23:08:11;7.18;;;2.17;;
46721;SDS011;32455;43.430;23.136;2023-01-19T23:10:57;8.52;;;1.60;;
46721;SDS011;32455;43.430;23.136;2023-01-19T23:13:42;5.05;;;1.92;;